Time;durP1;ratioP1;P1;durP2;ratioP2;P2;SDS_P1;SDS_P2;PMS_P1;PMS_P2;Temp;Humidity;BMP_temperature;BMP_pressure;BME280_temperature;BME280_humidity;BME280_pressure;Samples;Min_cycle;Max_cycle;Signal;HPM_P1;HPM_P2
2023/12/05 00:02:06;;;;;;;17.92;12.50;;;4.40;1.00;;;2.66;100.00;99241.03;4998982;28;20051;-80
2023/12/05 00:04:33;;;;;;;15.18;12.30;;;4.40;1.00;;;2.64;100.00;99244.50;4997084;28;20222;-80
2023/12/05 00:07:00;;;;;;;14.80;11.63;;;4.40;1.00;;;2.93;100.00;99274.53;4998601;28;20046;-80
2023/12/05 00:09:28;;;;;;;15.55;11.45;;;4.30;1.00;;;2.96;100.00;99285.72;5006203;28;20074;-79
2023/12/05 00:11:55;;;;;;;15.75;11.55;;;4.40;1.00;;;2.52;100.00;99211.72;4992990;28;20051;-80
2023/12/05 00:14:22;;;;;;;16.67;12.18;;;4.40;1.00;;;2.32;100.00;99186.78;4998725;28;20057;-80
2023/12/05 00:16:50;;;;;;;14.57;11.32;;;4.30;1.00;;;2.59;100.00;99221.16;4982943;28;20041;-80
2023/12/05 00:19:17;;;;;;;16.33;12.68;;;4.90;1.00;;;2.53;100.00;99209.09;4992026;28;20061;-80
2023/12/05 00:21:44;;;;;;;15.27;11.38;;;5.60;1.00;;;2.31;100.00;99171.25;4999576;28;20520;-80
2023/12/05 00:24:11;;;;;;;15.38;11.80;;;4.50;1.00;;;2.77;100.00;99256.50;4989683;28;20054;-80
2023/12/05 00:26:38;;;;;;;18.98;13.30;;;4.50;1.00;;;2.71;100.00;99238.34;4999773;28;20085;-79
2023/12/05 00:29:05;;;;;;;15.88;13.05;;;4.40;1.00;;;2.57;100.00;99235.91;4991402;28;20043;-80
2023/12/05 00:31:33;;;;;;;19.48;12.65;;;5.40;1.00;;;2.84;100.00;99265.94;5001722;28;20101;-79
2023/12/05 00:33:59;;;;;;;15.02;11.88;;;4.50;1.00;;;2.95;100.00;99285.75;5001273;28;20062;-80
2023/12/05 00:36:27;;;;;;;16.40;12.32;;;4.50;1.00;;;2.97;100.00;99278.81;5001935;28;20078;-81
2023/12/05 00:38:54;;;;;;;16.10;11.73;;;4.50;1.00;;;2.99;100.00;99277.06;4996537;28;20943;-80
2023/12/05 00:41:21;;;;;;;17.63;11.82;;;4.50;1.00;;;2.75;100.00;99244.38;5002648;28;20038;-79
2023/12/05 00:43:48;;;;;;;16.05;11.70;;;4.50;1.00;;;2.52;100.00;99212.56;4987266;28;20043;-80
2023/12/05 00:46:15;;;;;;;18.27;11.90;;;4.60;1.00;;;3.00;100.00;99283.13;4995083;28;20051;-80
2023/12/05 00:48:42;;;;;;;14.18;11.27;;;4.60;1.00;;;3.07;100.00;99298.63;5001135;28;20069;-80
2023/12/05 00:51:10;;;;;;;14.05;11.18;;;4.40;1.00;;;2.99;100.00;99274.44;5001270;28;20069;-79
2023/12/05 00:53:37;;;;;;;17.00;12.10;;;4.50;1.00;;;2.73;100.00;99239.19;4992883;28;20055;-79
2023/12/05 00:56:10;;;;;;;13.43;11.32;;;4.50;1.00;;;3.12;100.00;99302.03;4983898;28;20075;-79
2023/12/05 00:58:37;;;;;;;15.73;11.50;;;4.60;1.00;;;3.06;100.00;99299.53;4991842;28;20050;-80
2023/12/05 01:01:05;;;;;;;13.85;12.35;;;4.60;1.00;;;2.84;100.00;99252.94;4983599;28;20050;-79
2023/12/05 01:03:33;;;;;;;14.48;11.60;;;4.60;1.00;;;2.34;100.00;99174.69;4999652;28;20050;-79
2023/12/05 01:06:00;;;;;;;15.45;11.43;;;4.50;1.00;;;2.43;100.00;99189.31;4998152;28;20115;-80
2023/12/05 01:08:27;;;;;;;16.40;12.05;;;4.50;1.00;;;2.69;100.00;99224.53;4990517;28;20047;-80
2023/12/05 01:10:54;;;;;;;17.80;12.70;;;5.10;1.00;;;2.29;100.00;99167.81;4999121;28;20066;-79
2023/12/05 01:13:21;;;;;;;16.88;12.48;;;4.70;1.00;;;2.88;100.00;99268.50;4999237;28;20109;-80
2023/12/05 01:15:48;;;;;;;17.95;12.68;;;5.20;1.00;;;2.84;100.00;99262.50;4982873;28;20086;-80
2023/12/05 01:18:15;;;;;;;13.20;11.13;;;4.60;1.00;;;3.02;100.00;99282.22;4999485;28;20062;-79
2023/12/05 01:20:43;;;;;;;15.50;11.80;;;5.80;1.00;;;2.56;100.00;99231.59;4999739;28;20041;-80
2023/12/05 01:23:10;;;;;;;19.48;13.88;;;5.30;1.00;;;2.97;100.00;99274.50;4983932;28;20047;-80
2023/12/05 01:25:37;;;;;;;16.08;11.98;;;4.50;1.00;;;3.00;100.00;99277.94;4998374;28;20070;-80
2023/12/05 01:28:04;;;;;;;15.35;11.50;;;4.60;1.00;;;2.56;100.00;99208.22;4999394;28;20058;-80
2023/12/05 01:30:31;;;;;;;16.60;12.20;;;6.00;1.00;;;3.18;100.00;99316.72;4998222;28;20073;-79
2023/12/05 01:32:59;;;;;;;14.43;10.98;;;4.60;1.00;;;2.98;100.00;99275.34;4998787;28;20043;-79
2023/12/05 01:35:26;;;;;;;14.20;10.88;;;4.60;1.00;;;3.09;100.00;99290.81;4984167;28;20047;-80
2023/12/05 01:37:53;;;;;;;15.00;11.63;;;4.60;1.00;;;2.89;100.00;99259.81;4999415;28;20118;-80
2023/12/05 01:40:20;;;;;;;15.52;11.15;;;4.60;1.00;;;3.08;100.00;99289.97;4999076;28;20082;-80
2023/12/05 01:42:47;;;;;;;15.10;11.90;;;4.60;1.00;;;3.06;100.00;99288.25;4999918;28;20038;-80
2023/12/05 01:45:14;;;;;;;14.35;11.55;;;4.70;1.00;;;3.21;100.00;99315.84;4983515;28;20047;-79
2023/12/05 01:47:42;;;;;;;16.08;12.07;;;4.60;1.00;;;3.00;100.00;99294.38;4998617;28;20046;-80
2023/12/05 01:50:15;;;;;;;15.02;12.15;;;4.60;1.00;;;3.09;100.00;99312.47;4999183;28;20050;-79
2023/12/05 01:52:49;;;;;;;13.55;11.23;;;4.60;1.00;;;3.14;100.00;99316.75;4991448;28;20115;-80
2023/12/05 01:55:16;;;;;;;16.70;12.98;;;4.60;1.00;;;3.11;100.00;99307.25;4966122;28;20084;-80
2023/12/05 01:57:46;;;;;;;16.88;12.10;;;4.50;1.00;;;3.10;100.00;99316.78;5000053;28;20386;-80
2023/12/05 02:00:18;;;;;;;16.35;12.20;;;5.10;1.00;;;3.11;100.00;99310.72;4984304;28;20462;-80
2023/12/05 02:02:47;;;;;;;16.58;11.82;;;4.50;3.90;;;3.06;100.00;99306.44;4999542;28;20043;-80
2023/12/05 02:05:15;;;;;;;19.00;14.02;;;4.60;1.30;;;2.98;100.00;99298.72;4998014;28;20038;-79
2023/12/05 02:07:42;;;;;;;18.63;12.70;;;4.60;1.80;;;3.10;100.00;99305.53;4984637;28;20034;-81
2023/12/05 02:10:10;;;;;;;14.82;10.98;;;4.60;1.00;;;3.15;100.00;99302.88;5000900;28;20062;-80
2023/12/05 02:12:40;;;;;;;16.95;12.18;;;5.30;1.00;;;3.11;100.00;99289.94;5002062;28;20058;-80
2023/12/05 02:15:08;;;;;;;;;;;4.60;1.00;;;3.08;100.00;99276.09;5001886;28;20051;-80
2023/12/05 02:17:45;;;;;;;20.83;14.15;;;4.60;1.00;;;3.17;100.00;99306.31;4993262;28;19993;-80
2023/12/05 02:20:53;;;;;;;15.20;10.80;;;4.50;1.00;;;3.05;100.00;99286.53;5000680;28;20051;-80
2023/12/05 02:23:40;;;;;;;15.95;11.27;;;4.60;2.40;;;3.15;100.00;99295.97;4998348;28;20047;-80
2023/12/05 02:26:34;;;;;;;14.05;10.70;;;4.60;2.10;;;2.91;100.00;99263.31;5001411;28;20050;-79
2023/12/05 02:29:03;;;;;;;16.02;12.02;;;4.50;1.50;;;3.10;100.00;99300.31;4999232;28;20046;-80
2023/12/05 02:31:29;;;;;;;18.30;12.95;;;4.40;7.80;;;3.04;100.00;99308.19;5000008;28;20046;-79
2023/12/05 02:33:57;;;;;;;15.30;10.68;;;4.40;1.00;;;2.92;100.00;99273.66;4982803;28;20061;-79
2023/12/05 02:36:56;;;;;;;14.60;12.10;;;4.40;1.00;;;2.92;100.00;99285.81;5000455;28;20078;-80
2023/12/05 02:39:45;;;;;;;13.77;10.15;;;4.50;11.40;;;2.79;100.00;99275.53;4998042;28;20058;-80
2023/12/05 02:42:14;;;;;;;14.00;10.97;;;4.30;24.40;;;2.14;100.00;99190.44;5000575;28;20323;-79
2023/12/05 02:44:48;;;;;;;15.18;11.57;;;4.30;20.50;;;2.79;100.00;99283.31;4992003;28;20054;-80
2023/12/05 02:47:21;;;;;;;14.13;10.57;;;4.30;19.50;;;2.35;100.00;99207.56;5000497;28;20256;-80
2023/12/05 02:49:49;;;;;;;13.15;10.73;;;4.40;16.20;;;2.07;100.00;99175.78;5000295;28;20654;-81
2023/12/05 02:52:20;;;;;;;14.63;11.23;;;4.30;8.10;;;2.76;100.00;99278.16;5000525;28;20127;-80
2023/12/05 02:54:47;;;;;;;15.35;10.70;;;4.30;4.60;;;2.92;100.00;99314.38;4983250;28;20050;-79
2023/12/05 02:57:14;;;;;;;13.45;10.45;;;4.30;3.10;;;2.75;100.00;99272.97;5000654;28;20061;-80
2023/12/05 02:59:41;;;;;;;12.82;10.13;;;5.30;5.00;;;2.36;100.00;99211.00;4988198;28;20046;-80
2023/12/05 03:02:08;;;;;;;14.88;11.55;;;4.40;3.10;;;2.81;100.00;99272.91;4984501;28;20070;-80
2023/12/05 03:04:41;;;;;;;14.50;11.10;;;5.10;6.30;;;2.91;100.00;99289.28;4998492;28;20111;-80
2023/12/05 03:07:09;;;;;;;13.20;10.15;;;5.20;15.90;;;2.89;100.00;99283.22;4999509;28;20298;-79
2023/12/05 03:09:36;;;;;;;15.35;10.70;;;4.30;30.80;;;2.99;100.00;99290.06;4998258;28;20055;-81
2023/12/05 03:12:04;;;;;;;15.43;10.82;;;4.40;54.90;;;3.12;100.00;99290.78;4983876;28;20098;-81
2023/12/05 03:14:31;;;;;;;12.85;10.70;;;4.50;57.30;;;3.18;100.00;99288.13;4997674;28;20050;-81
2023/12/05 03:16:58;;;;;;;15.43;11.25;;;4.60;54.70;;;3.18;100.00;99287.25;4984665;28;20065;-80
2023/12/05 03:19:25;;;;;;;16.23;12.07;;;4.60;53.40;;;3.23;100.00;99291.53;4987278;28;20418;-80
2023/12/05 03:21:54;;;;;;;15.25;12.10;;;4.70;54.90;;;3.32;100.00;99300.09;4988825;28;20038;-80
2023/12/05 03:24:22;;;;;;;16.70;12.68;;;4.70;53.90;;;3.13;100.00;99263.94;4995134;28;20051;-79
2023/12/05 03:26:49;;;;;;;21.40;14.40;;;4.60;48.20;;;3.09;100.00;99273.50;5004090;28;20043;-80
2023/12/05 03:29:15;;;;;;;20.83;14.63;;;6.00;45.60;;;3.12;100.00;99302.03;5001514;28;20059;-80
2023/12/05 03:31:43;;;;;;;18.98;14.73;;;5.90;46.40;;;2.91;100.00;99261.53;5002701;28;20047;-81
2023/12/05 03:34:10;;;;;;;18.38;13.93;;;4.70;46.30;;;2.76;100.00;99230.53;5000655;28;20047;-80
2023/12/05 03:36:37;;;;;;;18.73;13.10;;;4.60;46.90;;;2.93;100.00;99257.19;5001836;28;20055;-80
2023/12/05 03:39:05;;;;;;;17.55;13.60;;;4.60;43.90;;;3.08;100.00;99296.88;4977737;28;20054;-80
2023/12/05 03:41:32;;;;;;;18.73;14.35;;;4.60;46.20;;;2.84;100.00;99241.72;5002402;28;20053;-80
2023/12/05 03:43:59;;;;;;;15.63;12.13;;;4.50;47.60;;;3.20;100.00;99306.28;4985086;28;20070;-80
2023/12/05 03:46:26;;;;;;;16.63;12.55;;;4.60;45.20;;;2.91;100.00;99261.53;4969441;28;20063;-81
2023/12/05 03:48:53;;;;;;;17.45;13.48;;;4.50;48.60;;;2.36;100.00;99182.44;4986224;28;20049;-81
2023/12/05 03:51:21;;;;;;;18.58;13.32;;;5.00;49.60;;;2.53;100.00;99234.22;5000776;28;20054;-80
2023/12/05 03:53:48;;;;;;;19.88;12.95;;;4.50;51.90;;;2.99;100.00;99297.84;4985160;28;20065;-80
2023/12/05 03:56:15;;;;;;;17.20;12.23;;;4.50;52.50;;;3.17;100.00;99306.31;4985424;28;20089;-80
2023/12/05 03:58:42;;;;;;;14.13;12.32;;;4.60;55.80;;;3.09;100.00;99294.28;4988603;28;20050;-80
2023/12/05 04:01:09;;;;;;;15.35;12.18;;;4.50;56.50;;;3.20;100.00;99316.69;5000990;28;20229;-79
2023/12/05 04:03:36;;;;;;;15.65;12.23;;;4.60;54.70;;;3.10;100.00;99293.41;5001173;28;20508;-80
2023/12/05 04:06:03;;;;;;;15.35;12.60;;;4.60;43.30;;;3.17;100.00;99308.91;4984436;28;20051;-80
2023/12/05 04:08:30;;;;;;;15.38;11.82;;;4.60;42.00;;;3.25;100.00;99304.50;5000406;28;20057;-80
2023/12/05 04:10:57;;;;;;;13.48;10.93;;;4.70;35.80;;;2.66;100.00;99201.19;5000793;28;20126;-79
2023/12/05 04:13:25;;;;;;;15.50;12.43;;;4.70;28.60;;;3.29;100.00;99306.19;4994938;28;20118;-81
2023/12/05 04:15:56;;;;;;;17.65;12.15;;;4.90;31.30;;;3.17;100.00;99282.94;4993369;28;20122;-80
2023/12/05 04:18:24;;;;;;;13.18;10.65;;;5.10;24.30;;;3.15;100.00;99269.09;4985275;28;20050;-80
2023/12/05 04:20:51;;;;;;;12.65;10.88;;;5.40;22.50;;;3.40;100.00;99312.13;4980718;28;20053;-80
2023/12/05 04:23:18;;;;;;;16.02;12.07;;;4.80;23.70;;;3.37;100.00;99317.38;4999866;28;20115;-81
2023/12/05 04:25:45;;;;;;;13.50;11.50;;;4.80;17.70;;;3.36;100.00;99305.25;4992523;28;20043;-79
2023/12/05 04:28:12;;;;;;;13.15;11.30;;;4.80;17.60;;;3.36;100.00;99318.25;4997746;28;20077;-79
2023/12/05 04:30:39;;;;;;;14.38;11.30;;;5.90;16.10;;;3.42;100.00;99312.09;4998353;28;20079;-80
2023/12/05 04:33:06;;;;;;;15.32;11.82;;;4.90;16.50;;;3.48;100.00;99330.25;5000614;28;20054;-80
2023/12/05 04:35:34;;;;;;;12.93;10.25;;;4.90;11.90;;;3.48;100.00;99319.84;4999703;28;20067;-80
2023/12/05 04:38:01;;;;;;;11.85;9.73;;;5.40;11.50;;;3.44;100.00;99314.69;5001036;28;20110;-80
2023/12/05 04:40:28;;;;;;;13.50;11.48;;;4.90;12.10;;;3.49;100.00;99323.28;4984758;28;20051;-79
2023/12/05 04:42:56;;;;;;;14.85;12.40;;;6.10;13.70;;;3.04;100.00;99251.03;5001005;28;20208;-81
2023/12/05 04:45:23;;;;;;;16.45;12.55;;;5.90;15.20;;;3.49;100.00;99324.16;4980972;28;20070;-79
2023/12/05 04:47:50;;;;;;;12.20;10.48;;;5.00;13.00;;;3.38;100.00;99316.50;4999306;28;20050;-79
2023/12/05 04:50:17;;;;;;;12.55;10.27;;;5.50;12.90;;;3.57;100.00;99336.22;4994850;28;20448;-80
2023/12/05 04:52:44;;;;;;;12.02;10.07;;;6.40;12.60;;;3.54;100.00;99327.56;4987635;28;20098;-78
2023/12/05 04:55:11;;;;;;;13.32;11.13;;;5.00;8.90;;;3.37;100.00;99299.19;4989303;28;20038;-79
2023/12/05 04:57:38;;;;;;;13.70;10.85;;;4.90;15.40;;;3.43;100.00;99302.56;4990869;28;20598;-82
2023/12/05 05:00:09;;;;;;;17.83;14.20;;;5.00;10.30;;;2.78;100.00;99210.59;4976830;28;20521;-78
2023/12/05 05:02:37;;;;;;;15.68;11.70;;;5.00;10.30;;;3.32;100.00;99284.50;4985928;28;20080;-79
2023/12/05 05:05:04;;;;;;;14.27;11.15;;;5.60;11.10;;;3.56;100.00;99319.75;4994566;28;20055;-80
2023/12/05 05:07:33;;;;;;;14.27;11.75;;;5.00;12.10;;;3.41;100.00;99292.19;4993493;28;20055;-78
2023/12/05 05:10:07;;;;;;;14.63;11.20;;;5.00;14.20;;;3.46;100.00;99310.34;4973299;28;20107;-81
2023/12/05 05:12:34;;;;;;;14.40;10.50;;;5.00;12.40;;;3.48;100.00;99311.19;4975635;28;20050;-78
2023/12/05 05:15:01;;;;;;;13.90;10.90;;;5.00;18.90;;;3.53;100.00;99314.59;4993708;28;20056;-80
2023/12/05 05:17:28;;;;;;;12.38;10.73;;;5.80;17.50;;;2.94;100.00;99226.88;4994671;28;20054;-80
2023/12/05 05:19:55;;;;;;;12.18;9.45;;;5.00;19.40;;;3.37;100.00;99290.50;4975985;28;20046;-80
2023/12/05 05:22:23;;;;;;;13.75;11.27;;;6.10;25.40;;;2.90;100.00;99218.25;4992244;28;20521;-81
2023/12/05 05:24:50;;;;;;;14.38;11.85;;;5.70;21.90;;;3.00;100.00;99228.56;4992057;28;20073;-82
2023/12/05 05:27:20;;;;;;;14.10;11.50;;;5.20;18.70;;;3.25;100.00;99281.97;4990913;28;20070;-79
2023/12/05 05:29:47;;;;;;;15.27;10.98;;;4.90;28.60;;;3.39;100.00;99310.41;4994994;28;20457;-79
2023/12/05 05:32:14;;;;;;;12.70;10.40;;;5.70;23.40;;;3.52;100.00;99321.53;4980807;28;20050;-78
2023/12/05 05:34:41;;;;;;;19.48;16.05;;;5.00;33.80;;;3.61;100.00;99320.56;4978076;28;20058;-78
2023/12/05 05:37:08;;;;;;;13.15;8.43;;;5.00;44.40;;;3.87;100.00;99321.97;4970071;28;20050;-78
2023/12/05 05:39:35;;;;;;;7.57;5.95;;;5.10;75.50;;;3.92;100.00;99281.13;4987336;28;20052;-78
2023/12/05 05:42:02;;;;;;;5.78;4.50;;;5.40;86.30;;;4.20;100.00;99293.72;4971530;28;20055;-78
2023/12/05 05:44:30;;;;;;;5.28;2.63;;;5.70;86.90;;;4.45;100.00;99315.94;4987359;28;20082;-79
2023/12/05 05:46:56;;;;;;;3.83;2.65;;;6.90;86.20;;;4.65;100.00;99336.47;4988907;28;20045;-78
2023/12/05 05:49:23;;;;;;;5.15;2.40;;;6.40;82.90;;;4.59;100.00;99305.28;4988960;28;20046;-78
2023/12/05 05:51:51;;;;;;;5.88;2.30;;;6.00;80.90;;;4.88;100.00;99336.06;4988362;28;20165;-79
2023/12/05 05:54:18;;;;;;;4.20;2.22;;;6.10;78.70;;;4.99;100.00;99324.56;4987432;28;20297;-78
2023/12/05 05:56:45;;;;;;;3.10;2.15;;;7.60;75.20;;;5.10;100.00;99339.16;4972450;28;20089;-78
2023/12/05 05:59:12;;;;;;;3.78;1.90;;;6.40;67.60;;;5.13;100.00;99335.63;4986592;28;20057;-78
2023/12/05 06:01:39;;;;;;;3.35;2.47;;;6.50;65.30;;;5.11;100.00;99321.75;4984240;28;20043;-78
2023/12/05 06:04:06;;;;;;;4.03;2.15;;;6.50;62.50;;;5.18;100.00;99331.19;4964088;28;20528;-79
2023/12/05 06:06:33;;;;;;;3.42;2.25;;;6.50;62.60;;;5.16;100.00;99325.16;4982342;28;20174;-78
2023/12/05 06:09:00;;;;;;;3.90;2.00;;;6.60;62.10;;;5.07;100.00;99305.34;4981062;28;20051;-78
2023/12/05 06:11:27;;;;;;;4.82;2.45;;;6.60;59.70;;;5.24;100.00;99343.28;4981290;28;20058;-78
2023/12/05 06:13:54;;;;;;;2.85;2.33;;;6.60;59.20;;;5.15;100.00;99319.97;4979994;28;20057;-78
2023/12/05 06:16:21;;;;;;;3.65;2.10;;;6.60;59.30;;;5.23;100.00;99331.97;4982564;28;20605;-78
2023/12/05 06:18:48;;;;;;;3.53;2.13;;;6.80;58.30;;;5.24;100.00;99343.28;4983031;28;20114;-79
2023/12/05 06:21:16;;;;;;;4.90;2.00;;;6.70;57.40;;;5.27;100.00;99330.16;4982655;28;20051;-78
2023/12/05 06:23:43;;;;;;;6.28;4.60;;;6.70;54.60;;;5.34;100.00;99334.38;4976749;28;20053;-78
2023/12/05 06:26:10;;;;;;;5.88;3.00;;;6.70;54.10;;;5.47;100.00;99339.34;4982876;28;20110;-78
2023/12/05 06:28:37;;;;;;;4.38;3.42;;;6.80;51.90;;;5.09;100.00;99285.31;4967236;28;20039;-78
2023/12/05 06:31:04;;;;;;;4.53;2.05;;;6.80;51.40;;;5.43;100.00;99324.66;4983025;28;20114;-78
2023/12/05 06:33:31;;;;;;;9.77;2.92;;;6.80;49.80;;;5.35;100.00;99299.56;4966337;28;20090;-77
2023/12/05 06:35:59;;;;;;;6.80;2.50;;;6.80;49.00;;;5.46;100.00;99322.81;4967690;28;20457;-78
2023/12/05 06:38:26;;;;;;;5.10;2.45;;;6.80;48.40;;;5.37;100.00;99320.41;4988128;28;20498;-78
2023/12/05 06:40:53;;;;;;;5.00;2.70;;;6.90;48.30;;;5.36;100.00;99329.13;4973582;28;20631;-78
2023/12/05 06:43:20;;;;;;;2.92;2.03;;;6.80;49.10;;;5.26;100.00;99325.84;4990029;28;20098;-78
2023/12/05 06:45:47;;;;;;;3.10;2.00;;;6.70;48.40;;;5.37;100.00;99346.50;4989405;28;20049;-78
2023/12/05 06:48:15;;;;;;;4.00;1.85;;;6.70;45.90;;;5.36;100.00;99342.16;4993061;28;20082;-81
2023/12/05 06:50:45;;;;;;;3.38;2.00;;;7.40;41.80;;;5.17;100.00;99320.78;4986944;28;20062;-79
2023/12/05 06:53:12;;;;;;;6.93;3.58;;;6.80;40.30;;;5.29;100.00;99337.94;4980660;28;20073;-78
2023/12/05 06:55:40;;;;;;;3.28;1.67;;;6.80;38.00;;;5.41;100.00;99362.97;4997261;28;20049;-78
2023/12/05 06:58:07;;;;;;;4.38;2.35;;;6.80;38.00;;;5.44;100.00;99368.97;4983361;28;20086;-79
2023/12/05 07:00:34;;;;;;;3.78;2.00;;;7.50;35.20;;;5.42;100.00;99351.63;4991738;28;20058;-79
2023/12/05 07:03:01;;;;;;;4.75;1.95;;;6.80;28.50;;;5.32;100.00;99333.53;4987610;28;20043;-78
2023/12/05 07:05:28;;;;;;;7.53;2.78;;;6.80;22.80;;;5.59;100.00;99383.47;4987193;28;20247;-78
2023/12/05 07:07:56;;;;;;;5.03;2.25;;;6.90;20.60;;;5.48;100.00;99374.97;4987416;28;20066;-77
2023/12/05 07:10:24;;;;;;;5.25;2.33;;;6.80;20.40;;;5.45;100.00;99369.84;4987565;28;20138;-79
2023/12/05 07:12:51;;;;;;;3.72;2.05;;;6.80;18.70;;;5.46;100.00;99377.59;4988015;28;20404;-77
2023/12/05 07:15:18;;;;;;;4.30;2.40;;;6.80;18.00;;;5.42;100.00;99386.41;4986953;28;20055;-77
2023/12/05 07:17:46;;;;;;;5.25;2.53;;;6.80;17.20;;;5.41;100.00;99369.03;4988155;28;20043;-77
2023/12/05 07:20:14;;;;;;;6.60;5.35;;;6.90;16.30;;;5.34;100.00;99352.63;4987222;28;20051;-78
2023/12/05 07:22:43;;;;;;;6.35;4.30;;;6.90;11.30;;;5.33;100.00;99355.28;4987448;28;20653;-78
2023/12/05 07:25:10;;;;;;;5.67;3.83;;;6.90;10.20;;;5.27;100.00;99355.38;4986873;28;20086;-77
2023/12/05 07:27:37;;;;;;;23.23;21.08;;;6.90;8.70;;;5.47;100.00;99361.09;4987268;28;20278;-78
2023/12/05 07:30:05;;;;;;;6.50;5.95;;;6.90;6.40;;;5.35;100.00;99353.50;4987253;28;20043;-77
2023/12/05 07:32:32;;;;;;;22.15;20.02;;;7.00;7.70;;;5.49;100.00;99366.28;4987635;28;20390;-78
2023/12/05 07:34:59;;;;;;;6.05;5.53;;;7.10;10.00;;;5.38;100.00;99351.66;4987198;28;20117;-77
2023/12/05 07:37:26;;;;;;;40.70;37.40;;;7.00;9.30;;;5.35;100.00;99353.50;4987364;28;20077;-78
2023/12/05 07:39:53;;;;;;;22.17;19.92;;;7.00;11.80;;;5.66;100.00;99398.13;4968216;28;20130;-79
2023/12/05 07:42:20;;;;;;;26.92;24.95;;;7.00;12.90;;;5.67;100.00;99409.44;4985468;28;20039;-77
2023/12/05 07:44:48;;;;;;;35.25;32.65;;;7.00;11.10;;;5.57;100.00;99393.09;4971324;28;20106;-78
2023/12/05 07:47:15;;;;;;;9.07;7.85;;;7.00;13.50;;;5.53;100.00;99380.97;4987657;28;20049;-78
2023/12/05 07:49:45;;;;;;;13.20;7.38;;;8.20;13.40;;;5.64;100.00;99397.28;4988138;28;20074;-78
2023/12/05 07:52:12;;;;;;;;;;;7.00;14.40;;;5.76;100.00;99424.03;4988259;28;20055;-77
2023/12/05 07:54:39;;;;;;;4.45;3.60;;;7.00;13.80;;;5.70;100.00;99430.25;4971313;28;19981;-78
2023/12/05 07:57:06;;;;;;;6.00;3.30;;;7.00;13.90;;;5.45;100.00;99388.09;4987615;28;20456;-78
2023/12/05 07:59:33;;;;;;;6.20;3.42;;;7.00;11.30;;;5.51;100.00;99401.00;4987800;28;20730;-78
2023/12/05 08:02:00;;;;;;;7.25;3.47;;;7.10;9.60;;;5.66;100.00;99412.94;4988216;28;20051;-78
2023/12/05 08:04:29;;;;;;;6.03;3.88;;;7.00;11.20;;;5.71;100.00;99426.75;4990837;28;20424;-77
2023/12/05 08:06:56;;;;;;;4.93;3.70;;;7.00;10.80;;;5.77;100.00;99434.44;4991002;28;20031;-79
2023/12/05 08:09:23;;;;;;;7.55;3.17;;;7.10;11.00;;;5.78;100.00;99425.75;4990984;28;20080;-78
2023/12/05 08:11:51;;;;;;;5.63;3.00;;;7.30;6.70;;;5.90;100.00;99442.91;4971972;28;20042;-77
2023/12/05 08:14:18;;;;;;;5.03;2.70;;;7.20;2.30;;;5.89;100.00;99438.59;4987586;28;20106;-77
2023/12/05 08:16:46;;;;;;;7.38;3.05;;;7.30;1.00;;;5.96;100.00;99448.00;4975093;28;20640;-77
2023/12/05 08:19:13;;;;;;;5.97;2.55;;;7.30;1.00;;;5.51;100.00;99390.56;4990931;28;20472;-78
2023/12/05 08:21:40;;;;;;;6.03;2.70;;;7.30;1.00;;;6.01;100.00;99442.72;4974405;28;20050;-78
2023/12/05 08:24:07;;;;;;;4.72;2.33;;;7.30;1.00;;;5.96;100.00;99426.28;4990784;28;20050;-77
2023/12/05 08:26:34;;;;;;;5.22;3.00;;;7.40;1.00;;;6.00;100.00;99432.25;4990670;28;20062;-78
2023/12/05 08:29:01;;;;;;;4.35;2.30;;;7.40;1.00;;;6.05;100.00;99444.38;4990785;28;20418;-77
2023/12/05 08:31:28;;;;;;;5.10;2.22;;;7.40;1.00;;;6.07;100.00;99439.97;4990801;28;20051;-78
2023/12/05 08:33:56;;;;;;;4.05;2.38;;;7.50;1.00;;;5.85;100.00;99391.69;4975189;28;20039;-78
2023/12/05 08:36:24;;;;;;;4.05;2.60;;;8.50;1.00;;;5.95;100.00;99403.66;4990418;28;20424;-78
2023/12/05 08:38:51;;;;;;;5.10;2.60;;;7.50;1.00;;;6.25;100.00;99450.97;4990307;28;20058;-77
2023/12/05 08:41:21;;;;;;;3.63;2.35;;;7.60;1.00;;;6.28;100.00;99447.41;4973272;28;20563;-76
2023/12/05 08:43:51;;;;;;;2.58;1.92;;;7.60;1.00;;;6.22;100.00;99433.59;4988045;28;20039;-77
2023/12/05 08:46:18;;;;;;;12.32;2.95;;;7.70;1.00;;;6.22;100.00;99435.34;4988226;28;20107;-77
2023/12/05 08:48:48;;;;;;;8.88;2.33;;;7.70;1.00;;;6.22;100.00;99423.16;4989103;28;20046;-77
2023/12/05 08:51:15;;;;;;;2.15;1.42;;;7.70;1.00;;;6.22;100.00;99414.44;4973477;28;20054;-77
2023/12/05 08:53:42;;;;;;;6.75;2.15;;;7.70;1.00;;;6.50;100.00;99466.97;4989418;28;20509;-78
2023/12/05 08:56:10;;;;;;;3.75;2.63;;;7.80;1.00;;;6.47;100.00;99437.44;4989155;28;20085;-76
2023/12/05 08:58:40;;;;;;;5.68;1.75;;;7.80;1.00;;;6.44;100.00;99430.50;4989221;28;20065;-77
2023/12/05 09:01:11;;;;;;;3.65;1.70;;;7.80;1.00;;;6.44;100.00;99435.72;4989510;28;20212;-77
2023/12/05 09:03:38;;;;;;;3.38;1.95;;;7.80;1.00;;;6.55;100.00;99452.94;4987872;28;20050;-78
2023/12/05 09:06:05;;;;;;;2.80;1.75;;;7.90;1.00;;;6.46;100.00;99430.47;4988945;28;20070;-78
2023/12/05 09:08:32;;;;;;;4.25;2.13;;;7.90;1.00;;;6.65;100.00;99442.25;4989629;28;20141;-78
2023/12/05 09:11:00;;;;;;;5.25;2.80;;;8.60;1.00;;;6.52;100.00;99425.09;4989165;28;20520;-76
2023/12/05 09:13:30;;;;;;;4.55;2.00;;;8.00;1.00;;;6.88;100.00;99460.91;4988599;28;20510;-78
2023/12/05 09:15:57;;;;;;;;;;;8.10;99.90;;;7.00;100.00;99473.69;4989110;28;20034;-78
2023/12/05 09:18:24;;;;;;;5.40;1.70;;;8.20;99.90;;;6.79;100.00;99428.88;4990572;28;19973;-78
2023/12/05 09:20:51;;;;;;;3.63;1.73;;;8.20;99.90;;;7.04;100.00;99461.41;4990892;28;20452;-78
2023/12/05 09:23:19;;;;;;;5.40;2.13;;;8.30;99.90;;;7.09;100.00;99457.75;4990755;28;20055;-77
2023/12/05 09:25:46;;;;;;;3.65;1.92;;;9.60;99.90;;;7.15;100.00;99474.22;4990459;28;20047;-78
2023/12/05 09:28:13;;;;;;;4.78;1.92;;;8.90;99.90;;;7.07;100.00;99463.94;4990282;28;20130;-78
2023/12/05 09:30:41;;;;;;;2.75;1.83;;;8.40;99.90;;;7.08;100.00;99457.81;4989169;28;20059;-76
2023/12/05 09:33:08;;;;;;;4.22;1.85;;;8.40;99.90;;;6.90;100.00;99440.81;4990259;28;20501;-77
2023/12/05 09:35:35;;;;;;;5.03;2.45;;;9.00;99.90;;;6.88;100.00;99456.56;4971380;28;20055;-78
2023/12/05 09:38:02;;;;;;;6.60;3.08;;;8.40;1.00;;;7.12;100.00;99463.84;4974313;28;20110;-78
2023/12/05 09:40:31;;;;;;;9.07;2.70;;;8.40;99.90;;;7.03;100.00;99471.00;4989434;28;20047;-78
2023/12/05 09:43:01;;;;;;;4.45;1.90;;;8.40;99.90;;;7.01;100.00;99451.00;4988692;28;20066;-78
2023/12/05 09:45:39;;;;;;;4.03;2.00;;;8.40;99.90;;;7.01;100.00;99464.06;4972909;28;20047;-79
2023/12/05 09:48:09;;;;;;;5.93;2.80;;;8.40;99.90;;;6.86;100.00;99439.16;4988575;28;20053;-78
2023/12/05 09:50:37;;;;;;;;;;;8.30;99.90;;;6.86;100.00;99452.25;4988088;28;20058;-78
2023/12/05 09:53:09;;;;;;;9.25;2.47;;;8.30;99.90;;;6.99;100.00;99460.66;4987630;28;19922;-78
2023/12/05 09:55:39;;;;;;;6.88;2.35;;;8.40;99.90;;;7.12;100.00;99484.78;4985912;28;20043;-78
2023/12/05 09:58:07;;;;;;;6.85;2.30;;;9.00;99.90;;;7.03;100.00;99468.38;4985648;28;20527;-77
2023/12/05 10:00:34;;;;;;;4.07;1.85;;;8.30;99.90;;;7.06;100.00;99485.78;4985549;28;20128;-78
2023/12/05 10:03:08;;;;;;;11.77;2.22;;;9.20;99.90;;;6.98;100.00;99462.41;4985179;28;20108;-77
2023/12/05 10:05:41;;;;;;;8.30;2.70;;;8.40;99.90;;;7.18;100.00;99487.22;4984871;28;20039;-77
2023/12/05 10:08:11;;;;;;;3.30;1.95;;;8.40;99.90;;;6.93;100.00;99438.97;4985694;28;20050;-78
2023/12/05 10:10:42;;;;;;;5.57;1.98;;;8.40;99.90;;;7.10;100.00;99476.94;4985388;28;20495;-78
2023/12/05 10:13:12;;;;;;;4.35;1.77;;;9.00;99.90;;;6.97;100.00;99445.00;4985588;28;20058;-77
2023/12/05 10:15:40;;;;;;;4.85;1.90;;;8.40;99.90;;;7.09;100.00;99456.94;4969684;28;20050;-77
2023/12/05 10:18:08;;;;;;;2.03;1.55;;;8.40;99.90;;;7.24;100.00;99482.72;4985008;28;20047;-77
2023/12/05 10:20:38;;;;;;;4.50;2.00;;;8.40;99.90;;;7.27;100.00;99484.41;4984613;28;20305;-77
2023/12/05 10:23:05;;;;;;;5.90;1.70;;;8.50;1.00;;;7.16;100.00;99471.56;4984551;28;20070;-77
2023/12/05 10:25:32;;;;;;;2.47;1.77;;;8.60;1.00;;;7.26;100.00;99487.91;4984165;28;20058;-77
2023/12/05 10:28:05;;;;;;;2.88;1.85;;;8.50;8.90;;;7.19;100.00;99468.03;4969976;28;20050;-77